createdAt,value
2023-01-27T00:00:52.063Z,96769.56
2023-01-27T00:03:20.022Z,96763.44
2023-01-27T00:05:47.807Z,96761.16
2023-01-27T00:08:15.696Z,96753.81
2023-01-27T00:10:43.609Z,96750.72
2023-01-27T00:13:27.059Z,96759.91
2023-01-27T00:15:55.350Z,96773.72
2023-01-27T00:18:26.102Z,96775.47
2023-01-27T00:21:12.733Z,96789.94
2023-01-27T00:23:58.859Z,96798.97
2023-01-27T00:26:26.620Z,96791.50
2023-01-27T00:28:54.328Z,96773.75
2023-01-27T00:31:40.892Z,96769.66
2023-01-27T00:34:11.515Z,96762.38
2023-01-27T00:36:40.928Z,96752.34
2023-01-27T00:39:09.722Z,96745.00
2023-01-27T00:41:37.500Z,96731.66
2023-01-27T00:44:05.859Z,96733.31
2023-01-27T00:46:34.452Z,96726.78
2023-01-27T00:49:02.237Z,96734.81
2023-01-27T00:51:31.261Z,96732.34
2023-01-27T00:53:59.346Z,96748.28
2023-01-27T00:56:28.185Z,96746.81
2023-01-27T00:58:56.327Z,96749.13
2023-01-27T01:01:24.119Z,96753.31
2023-01-27T01:03:53.331Z,96757.69
2023-01-27T01:06:22.088Z,96753.44
2023-01-27T01:08:51.399Z,96751.13
2023-01-27T01:11:20.439Z,96772.22
2023-01-27T01:13:48.616Z,96781.78
2023-01-27T01:16:21.465Z,96759.31
2023-01-27T01:18:49.696Z,96762.28
2023-01-27T01:21:17.417Z,96776.47
2023-01-27T01:23:45.310Z,96771.69
2023-01-27T01:26:14.650Z,96759.47
2023-01-27T01:28:43.944Z,96751.59
2023-01-27T01:31:13.380Z,96751.16
2023-01-27T01:33:41.277Z,96745.78
2023-01-27T01:36:14.151Z,96725.31
2023-01-27T01:38:42.091Z,96719.88
2023-01-27T01:41:13.308Z,96724.25
2023-01-27T01:43:41.111Z,96720.31
2023-01-27T01:46:10.232Z,96712.03
2023-01-27T01:48:47.487Z,96726.34
2023-01-27T01:51:36.982Z,96729.69
2023-01-27T01:54:19.414Z,96723.63
2023-01-27T01:56:49.729Z,96719.00
2023-01-27T01:59:55.849Z,96712.59
2023-01-27T02:02:25.260Z,96702.22
2023-01-27T02:04:59.568Z,96691.63
2023-01-27T02:07:52.989Z,96682.50
2023-01-27T02:10:24.403Z,96687.16
2023-01-27T02:12:52.147Z,96683.28
2023-01-27T02:15:21.446Z,96677.31
2023-01-27T02:17:49.345Z,96671.59
2023-01-27T02:20:23.037Z,96671.72
2023-01-27T02:23:27.782Z,96653.00
2023-01-27T02:26:09.917Z,96655.34
2023-01-27T02:28:37.776Z,96667.56
2023-01-27T02:31:05.625Z,96663.44
2023-01-27T02:33:34.669Z,96671.16
2023-01-27T02:36:09.171Z,96666.88
2023-01-27T02:38:45.717Z,96666.13
2023-01-27T02:41:33.913Z,96654.25
2023-01-27T02:44:02.062Z,96647.94
2023-01-27T02:46:30.051Z,96639.47
2023-01-27T02:48:57.939Z,96655.19
2023-01-27T02:51:25.672Z,96660.38
2023-01-27T02:53:53.539Z,96659.66
2023-01-27T02:56:22.748Z,96654.09
2023-01-27T02:58:50.892Z,96664.28
2023-01-27T03:01:25.589Z,96668.53
2023-01-27T03:03:53.390Z,96657.28
2023-01-27T03:06:21.128Z,96662.84
2023-01-27T03:08:49.110Z,96666.88
2023-01-27T03:11:39.982Z,96664.22
2023-01-27T03:14:08.600Z,96674.09
2023-01-27T03:16:55.027Z,96664.78
2023-01-27T03:19:22.888Z,96664.84
2023-01-27T03:21:51.282Z,96646.00
2023-01-27T03:24:20.384Z,96627.56
2023-01-27T03:26:48.621Z,96622.72
2023-01-27T03:29:37.002Z,96636.72
2023-01-27T03:32:06.745Z,96620.56
2023-01-27T03:34:35.225Z,96609.41
2023-01-27T03:37:30.051Z,96604.44
2023-01-27T03:40:16.284Z,96603.34
2023-01-27T03:43:02.734Z,96602.16
2023-01-27T03:45:49.065Z,96605.72
2023-01-27T03:48:20.819Z,96603.91
2023-01-27T03:50:53.555Z,96614.19
2023-01-27T03:53:21.367Z,96622.03
2023-01-27T03:55:49.083Z,96613.97
2023-01-27T03:58:27.787Z,96621.81
2023-01-27T04:00:56.876Z,96622.19
2023-01-27T04:03:44.077Z,96611.53
2023-01-27T04:06:33.344Z,96619.09
2023-01-27T04:09:01.104Z,96641.44
2023-01-27T04:11:47.935Z,96660.75
2023-01-27T04:14:15.960Z,96664.28
2023-01-27T04:16:43.753Z,96655.13
2023-01-27T04:19:11.750Z,96640.41
2023-01-27T04:21:39.690Z,96660.13
2023-01-27T04:24:17.432Z,96672.00
2023-01-27T04:26:45.639Z,96677.56
2023-01-27T04:29:13.757Z,96675.59
2023-01-27T04:31:42.530Z,96664.50
2023-01-27T04:34:11.004Z,96672.56
2023-01-27T04:36:39.783Z,96673.59
2023-01-27T04:39:07.935Z,96682.84
2023-01-27T04:41:35.818Z,96674.03
2023-01-27T04:44:04.312Z,96688.97
2023-01-27T04:46:32.645Z,96686.53
2023-01-27T04:49:00.776Z,96694.78
2023-01-27T04:51:28.611Z,96687.84
2023-01-27T04:53:56.456Z,96691.94
2023-01-27T04:56:29.192Z,96687.22
2023-01-27T04:59:03.521Z,96681.91
2023-01-27T05:01:31.318Z,96686.19
2023-01-27T05:03:59.142Z,96677.47
2023-01-27T05:06:26.961Z,96668.13
2023-01-27T05:08:54.738Z,96666.81
2023-01-27T05:11:22.550Z,96672.97
2023-01-27T05:13:50.257Z,96664.81
2023-01-27T05:16:20.151Z,96661.22
2023-01-27T05:18:49.065Z,96659.19
2023-01-27T05:21:19.151Z,96651.13
2023-01-27T05:23:47.093Z,96655.97
2023-01-27T05:26:25.562Z,96662.75
2023-01-27T05:28:53.657Z,96660.34
2023-01-27T05:31:23.321Z,96653.72
2023-01-27T05:33:52.223Z,96658.75
2023-01-27T05:36:21.440Z,96651.59
2023-01-27T05:38:49.322Z,96651.19
2023-01-27T05:41:17.656Z,96651.31
2023-01-27T05:43:46.330Z,96644.28
2023-01-27T05:46:16.167Z,96648.66
2023-01-27T05:48:45.563Z,96653.69
2023-01-27T05:51:15.028Z,96642.00
2023-01-27T05:53:43.652Z,96643.88
2023-01-27T05:56:12.719Z,96647.31
2023-01-27T05:58:40.551Z,96644.59
2023-01-27T06:01:12.484Z,96644.53
2023-01-27T06:03:40.533Z,96648.59
2023-01-27T06:06:09.540Z,96652.91
2023-01-27T06:08:37.442Z,96645.28
2023-01-27T06:11:05.506Z,96639.31
2023-01-27T06:13:35.809Z,96643.44
2023-01-27T06:16:04.050Z,96646.16
2023-01-27T06:18:31.881Z,96646.09
2023-01-27T06:21:03.531Z,96645.84
2023-01-27T06:23:31.267Z,96659.31
2023-01-27T06:26:09.623Z,96676.06
2023-01-27T06:28:38.001Z,96675.88
2023-01-27T06:31:08.851Z,96671.63
2023-01-27T06:33:36.884Z,96677.97
2023-01-27T06:36:09.971Z,96673.31
2023-01-27T06:38:37.805Z,96682.13
2023-01-27T06:41:05.686Z,96681.09
2023-01-27T06:43:33.422Z,96681.69
2023-01-27T06:46:02.571Z,96671.56
2023-01-27T06:48:32.632Z,96672.31
2023-01-27T06:51:00.369Z,96675.41
2023-01-27T06:53:28.178Z,96678.88
2023-01-27T06:55:57.073Z,96676.28
2023-01-27T06:58:25.112Z,96679.88
2023-01-27T07:00:53.284Z,96686.91
2023-01-27T07:03:21.278Z,96698.91
2023-01-27T07:05:49.070Z,96698.22
2023-01-27T07:08:16.771Z,96694.84
2023-01-27T07:10:44.452Z,96708.31
2023-01-27T07:13:13.263Z,96713.44
2023-01-27T07:15:41.274Z,96709.28
2023-01-27T07:18:10.085Z,96701.34
2023-01-27T07:20:37.796Z,96697.66
2023-01-27T07:23:05.862Z,96690.94
2023-01-27T07:25:34.349Z,96681.97
2023-01-27T07:28:02.389Z,96678.53
2023-01-27T07:30:30.319Z,96673.31
2023-01-27T07:33:07.786Z,96682.13
2023-01-27T07:35:36.701Z,96683.31
2023-01-27T07:38:05.489Z,96694.31
2023-01-27T07:40:33.208Z,96693.97
2023-01-27T07:43:01.423Z,96702.69
2023-01-27T07:45:29.430Z,96697.34
2023-01-27T07:48:01.915Z,96689.16
2023-01-27T07:50:29.813Z,96686.53
2023-01-27T07:53:01.391Z,96689.03
2023-01-27T07:55:29.621Z,96686.28
2023-01-27T07:57:57.608Z,96690.56
2023-01-27T08:00:25.498Z,96690.19
2023-01-27T08:02:53.953Z,96684.88
2023-01-27T08:05:22.779Z,96689.91
2023-01-27T08:07:51.058Z,96684.50
2023-01-27T08:10:18.962Z,96684.00
2023-01-27T08:12:46.898Z,96684.00
2023-01-27T08:15:16.580Z,96689.34
2023-01-27T08:17:53.781Z,96702.00
2023-01-27T08:20:22.400Z,96709.22
2023-01-27T08:22:50.097Z,96703.13
2023-01-27T08:25:18.027Z,96703.78
2023-01-27T08:27:45.783Z,96699.91
2023-01-27T08:30:13.829Z,96701.94
2023-01-27T08:32:41.750Z,96701.28
2023-01-27T08:35:09.626Z,96701.25
2023-01-27T08:37:37.437Z,96696.44
2023-01-27T08:40:05.543Z,96700.25
2023-01-27T08:42:33.300Z,96707.63
2023-01-27T08:45:01.055Z,96704.03
2023-01-27T08:47:28.767Z,96692.09
2023-01-27T08:49:57.089Z,96699.25
2023-01-27T08:52:24.821Z,96699.03
2023-01-27T08:54:52.609Z,96697.22
2023-01-27T08:57:20.298Z,96698.50
2023-01-27T08:59:47.958Z,96704.03
2023-01-27T09:02:15.752Z,96703.13
2023-01-27T09:04:45.228Z,96696.72
2023-01-27T09:07:13.082Z,96699.63
2023-01-27T09:09:40.805Z,96697.69
2023-01-27T09:12:08.537Z,96682.91
2023-01-27T09:14:36.243Z,96681.00
2023-01-27T09:17:03.978Z,96689.09
2023-01-27T09:19:31.648Z,96677.34
2023-01-27T09:21:59.457Z,96677.34
2023-01-27T09:24:27.173Z,96682.16
2023-01-27T09:26:54.977Z,96686.03
2023-01-27T09:29:22.795Z,96670.34
2023-01-27T09:31:50.729Z,96671.09
2023-01-27T09:34:19.427Z,96661.50
2023-01-27T09:36:51.026Z,96656.50
2023-01-27T09:39:20.042Z,96663.88
2023-01-27T09:42:06.448Z,96655.63
2023-01-27T09:45:11.198Z,96649.28
2023-01-27T09:47:39.039Z,96651.19
2023-01-27T09:50:25.485Z,96644.38
2023-01-27T09:53:17.764Z,96646.78
2023-01-27T09:56:20.499Z,96647.34
2023-01-27T09:59:15.621Z,96648.16
2023-01-27T10:02:16.563Z,96641.75
2023-01-27T10:04:47.077Z,96642.44
2023-01-27T10:07:30.617Z,96643.78
2023-01-27T10:10:25.713Z,96647.94
2023-01-27T10:13:21.172Z,96654.19
2023-01-27T10:15:58.346Z,96648.69
2023-01-27T10:18:48.305Z,96642.75
2023-01-27T10:21:25.357Z,96642.16
2023-01-27T10:24:19.090Z,96638.66
2023-01-27T10:26:57.061Z,96640.06
2023-01-27T10:29:25.743Z,96617.75
2023-01-27T10:31:57.670Z,96625.94
2023-01-27T10:34:35.941Z,96620.38
2023-01-27T10:37:32.937Z,96624.28
2023-01-27T10:40:01.764Z,96620.94
2023-01-27T10:42:41.981Z,96618.03
2023-01-27T10:45:24.671Z,96624.34
2023-01-27T10:48:17.441Z,96624.16
2023-01-27T10:50:52.554Z,96615.56
2023-01-27T10:53:33.998Z,96615.38
2023-01-27T10:56:09.886Z,96609.53
2023-01-27T10:58:55.768Z,96610.91
2023-01-27T11:01:33.066Z,96596.59
2023-01-27T11:04:21.771Z,96605.56
2023-01-27T11:06:49.502Z,96593.03
2023-01-27T11:09:37.269Z,96598.59
2023-01-27T11:12:09.168Z,96598.22
2023-01-27T11:14:49.434Z,96596.22
2023-01-27T11:17:44.857Z,96597.69
2023-01-27T11:20:27.126Z,96599.97
2023-01-27T11:23:10.181Z,96595.47
2023-01-27T11:25:52.820Z,96604.44
2023-01-27T11:28:20.542Z,96598.31
2023-01-27T11:31:11.060Z,96598.91
2023-01-27T11:33:40.688Z,96598.84
2023-01-27T11:36:09.033Z,96598.63
2023-01-27T11:38:36.751Z,96606.13
2023-01-27T11:41:04.610Z,96603.78
2023-01-27T11:43:32.417Z,96593.91
2023-01-27T11:46:05.667Z,96600.06
2023-01-27T11:48:42.219Z,96596.13
2023-01-27T11:51:13.595Z,96589.13
2023-01-27T11:53:41.398Z,96587.00
2023-01-27T11:56:17.910Z,96576.91
2023-01-27T11:58:53.549Z,96574.16
2023-01-27T12:01:29.336Z,96599.25
2023-01-27T12:04:01.130Z,96587.31
2023-01-27T12:06:38.673Z,96584.03
2023-01-27T12:09:06.479Z,96593.94
2023-01-27T12:11:34.216Z,96597.75
2023-01-27T12:14:03.398Z,96593.09
2023-01-27T12:16:48.433Z,96588.88
2023-01-27T12:19:36.664Z,96588.44
2023-01-27T12:22:10.212Z,96587.00
2023-01-27T12:24:40.412Z,96579.25
2023-01-27T12:27:10.537Z,96581.50
2023-01-27T12:29:46.290Z,96583.03
2023-01-27T12:32:17.015Z,96582.47
2023-01-27T12:34:46.081Z,96592.25
2023-01-27T12:37:23.306Z,96594.59
2023-01-27T12:40:00.570Z,96589.91
2023-01-27T12:42:41.223Z,96592.47
2023-01-27T12:45:26.406Z,96590.31
2023-01-27T12:47:56.792Z,96595.28
2023-01-27T12:50:27.263Z,96594.56
2023-01-27T12:53:27.027Z,96596.78
2023-01-27T12:56:07.247Z,96595.44
2023-01-27T12:58:45.101Z,96593.66
2023-01-27T13:01:30.167Z,96593.78
2023-01-27T13:04:13.860Z,96597.00
2023-01-27T13:06:47.577Z,96590.94
2023-01-27T13:09:27.576Z,96590.81
2023-01-27T13:11:56.930Z,96601.69
2023-01-27T13:14:24.753Z,96598.41
2023-01-27T13:16:53.748Z,96603.72
2023-01-27T13:19:22.971Z,96618.47
2023-01-27T13:21:50.835Z,96612.75
2023-01-27T13:24:33.289Z,96613.66
2023-01-27T13:27:02.522Z,96616.84
2023-01-27T13:29:32.619Z,96618.91
2023-01-27T13:32:15.958Z,96621.81
2023-01-27T13:34:47.336Z,96613.50
2023-01-27T13:37:28.625Z,96617.66
2023-01-27T13:40:29.516Z,96626.22
2023-01-27T13:43:20.535Z,96630.59
2023-01-27T13:45:57.333Z,96629.94
2023-01-27T13:48:29.150Z,96625.94
2023-01-27T13:51:16.903Z,96630.31
2023-01-27T13:53:44.923Z,96628.75
2023-01-27T13:56:21.795Z,96637.34
2023-01-27T13:59:07.872Z,96634.19
2023-01-27T14:01:47.859Z,96639.84
2023-01-27T14:04:31.093Z,96634.88
2023-01-27T14:07:25.611Z,96627.94
2023-01-27T14:10:00.744Z,96632.41
2023-01-27T14:12:43.529Z,96639.31
2023-01-27T14:15:23.544Z,96640.84
2023-01-27T14:18:02.987Z,96636.94
2023-01-27T14:20:36.760Z,96641.03
2023-01-27T14:23:26.600Z,96644.09
2023-01-27T14:26:16.126Z,96657.34
2023-01-27T14:29:09.119Z,96657.03
2023-01-27T14:31:43.524Z,96651.00
2023-01-27T14:34:36.386Z,96655.25
2023-01-27T14:37:30.517Z,96659.72
2023-01-27T14:40:21.513Z,96652.88
2023-01-27T14:43:01.734Z,96659.16
2023-01-27T14:45:33.143Z,96661.25
2023-01-27T14:48:36.376Z,96653.34
2023-01-27T14:51:22.555Z,96664.13
2023-01-27T14:54:03.854Z,96672.28
2023-01-27T14:57:18.166Z,96679.03
2023-01-27T15:00:19.426Z,96678.16
2023-01-27T15:03:03.771Z,96679.50
2023-01-27T15:05:55.846Z,96671.16
2023-01-27T15:08:42.371Z,96665.91
2023-01-27T15:11:21.901Z,96675.09
2023-01-27T15:14:04.427Z,96685.44
2023-01-27T15:16:59.724Z,96688.81
2023-01-27T15:19:45.955Z,96688.13
2023-01-27T15:22:45.760Z,96694.19
2023-01-27T15:25:13.736Z,96693.44
2023-01-27T15:27:41.604Z,96692.84
2023-01-27T15:30:34.489Z,96697.19
2023-01-27T15:33:02.303Z,96694.25
2023-01-27T15:35:36.171Z,96692.19
2023-01-27T15:38:08.357Z,96700.50
2023-01-27T15:41:07.214Z,96702.69
2023-01-27T15:43:38.421Z,96700.28
2023-01-27T15:46:38.902Z,96701.47
2023-01-27T15:49:06.599Z,96709.59
2023-01-27T15:51:37.440Z,96710.63
2023-01-27T15:54:05.275Z,96708.47
2023-01-27T15:56:50.570Z,96703.78
2023-01-27T15:59:49.839Z,96714.06
2023-01-27T16:02:28.533Z,96712.13
2023-01-27T16:05:24.644Z,96712.75
2023-01-27T16:07:58.288Z,96713.25
2023-01-27T16:10:29.417Z,96709.31
2023-01-27T16:13:26.158Z,96715.22
2023-01-27T16:16:18.812Z,96717.41
2023-01-27T16:19:14.054Z,96718.47
2023-01-27T16:21:50.821Z,96721.06
2023-01-27T16:24:41.515Z,96726.03
2023-01-27T16:27:34.096Z,96727.81
2023-01-27T16:30:14.308Z,96728.13
2023-01-27T16:32:48.379Z,96727.00
2023-01-27T16:35:17.763Z,96726.69
2023-01-27T16:38:16.717Z,96738.94
2023-01-27T16:40:57.297Z,96728.34
2023-01-27T16:43:31.684Z,96721.59
2023-01-27T16:46:02.769Z,96733.75
2023-01-27T16:48:39.301Z,96734.31
2023-01-27T16:51:26.326Z,96735.09
2023-01-27T16:53:58.255Z,96735.38
2023-01-27T16:56:29.874Z,96739.25
2023-01-27T16:59:08.025Z,96740.97
2023-01-27T17:01:59.772Z,96744.47
2023-01-27T17:04:28.803Z,96741.16
2023-01-27T17:06:58.093Z,96735.81
2023-01-27T17:09:31.994Z,96728.56
2023-01-27T17:11:59.864Z,96744.16
2023-01-27T17:14:31.816Z,96731.41
2023-01-27T17:17:01.887Z,96730.97
2023-01-27T17:19:34.103Z,96734.06
2023-01-27T17:22:11.415Z,96746.41
2023-01-27T17:24:46.991Z,96742.06
2023-01-27T17:27:38.307Z,96748.97
2023-01-27T17:30:27.129Z,96746.63
2023-01-27T17:32:56.093Z,96750.47
2023-01-27T17:35:25.719Z,96758.78
2023-01-27T17:37:53.672Z,96757.91
2023-01-27T17:40:22.242Z,96760.50
2023-01-27T17:42:50.143Z,96755.47
2023-01-27T17:45:26.771Z,96761.28
2023-01-27T17:47:57.641Z,96760.34
2023-01-27T17:50:27.699Z,96762.00
2023-01-27T17:52:56.512Z,96759.53
2023-01-27T17:55:25.422Z,96764.63
2023-01-27T17:58:25.815Z,96768.56
2023-01-27T18:00:53.854Z,96757.44
2023-01-27T18:03:21.460Z,96767.97
2023-01-27T18:05:50.718Z,96765.75
2023-01-27T18:08:19.462Z,96767.50
2023-01-27T18:10:47.185Z,96770.25
2023-01-27T18:13:17.888Z,96770.28
2023-01-27T18:15:58.420Z,96763.28
2023-01-27T18:18:30.643Z,96768.59
2023-01-27T18:21:01.389Z,96766.41
2023-01-27T18:23:34.162Z,96781.38
2023-01-27T18:26:18.438Z,96780.88
2023-01-27T18:28:48.683Z,96777.81
2023-01-27T18:31:24.867Z,96782.75
2023-01-27T18:34:00.279Z,96781.16
2023-01-27T18:36:34.726Z,96798.53
2023-01-27T18:39:28.047Z,96796.22
2023-01-27T18:41:55.834Z,96786.81
2023-01-27T18:44:27.188Z,96796.19
2023-01-27T18:46:55.966Z,96802.06
2023-01-27T18:49:24.083Z,96797.88
2023-01-27T18:51:51.814Z,96807.84
2023-01-27T18:54:19.553Z,96798.00
2023-01-27T18:56:47.271Z,96804.84
2023-01-27T18:59:15.033Z,96805.34
2023-01-27T19:01:42.831Z,96807.81
2023-01-27T19:04:11.719Z,96809.16
2023-01-27T19:06:39.421Z,96800.88
2023-01-27T19:09:10.410Z,96799.19
2023-01-27T19:11:38.150Z,96802.66
2023-01-27T19:14:05.833Z,96811.63
2023-01-27T19:16:33.709Z,96816.50
2023-01-27T19:19:01.808Z,96817.50
2023-01-27T19:21:29.503Z,96813.38
2023-01-27T19:23:57.249Z,96825.28
2023-01-27T19:26:24.956Z,96818.25
2023-01-27T19:28:54.121Z,96822.78
2023-01-27T19:31:22.001Z,96817.06
2023-01-27T19:33:49.892Z,96821.63
2023-01-27T19:36:20.964Z,96823.16
2023-01-27T19:38:51.043Z,96829.31
2023-01-27T19:41:18.730Z,96821.94
2023-01-27T19:43:50.000Z,96821.97
2023-01-27T19:46:21.240Z,96820.38
2023-01-27T19:48:52.249Z,96822.63
2023-01-27T19:51:20.142Z,96827.31
2023-01-27T19:53:47.843Z,96829.03
2023-01-27T19:56:20.067Z,96827.22
2023-01-27T19:58:51.853Z,96826.00
2023-01-27T20:01:20.515Z,96824.84
2023-01-27T20:03:48.921Z,96829.16
2023-01-27T20:06:21.423Z,96835.22
2023-01-27T20:08:56.200Z,96833.09
2023-01-27T20:11:40.586Z,96834.47
2023-01-27T20:14:13.853Z,96836.78
2023-01-27T20:16:42.252Z,96828.13
2023-01-27T20:19:11.889Z,96833.72
2023-01-27T20:21:39.605Z,96831.44
2023-01-27T20:24:07.491Z,96831.00
2023-01-27T20:26:37.482Z,96841.38
2023-01-27T20:29:05.212Z,96844.81
2023-01-27T20:31:33.013Z,96841.91
2023-01-27T20:34:00.810Z,96849.91
2023-01-27T20:36:28.773Z,96847.78
2023-01-27T20:38:56.499Z,96842.47
2023-01-27T20:41:24.593Z,96862.66
2023-01-27T20:44:00.274Z,96851.50
2023-01-27T20:46:28.577Z,96855.06
2023-01-27T20:48:56.567Z,96863.97
2023-01-27T20:51:24.373Z,96859.81
2023-01-27T20:53:52.080Z,96868.50
2023-01-27T20:56:21.555Z,96869.53
2023-01-27T20:58:49.399Z,96873.78
2023-01-27T21:01:19.298Z,96872.88
2023-01-27T21:03:46.991Z,96869.38
2023-01-27T21:06:15.838Z,96873.06
2023-01-27T21:08:43.891Z,96876.44
2023-01-27T21:11:13.019Z,96873.16
2023-01-27T21:13:40.848Z,96884.56
2023-01-27T21:16:08.590Z,96878.44
2023-01-27T21:18:36.671Z,96874.22
2023-01-27T21:21:04.755Z,96874.50
2023-01-27T21:23:33.145Z,96878.09
2023-01-27T21:26:05.173Z,96883.53
2023-01-27T21:28:33.903Z,96875.25
2023-01-27T21:31:08.781Z,96886.50
2023-01-27T21:33:37.622Z,96880.44
2023-01-27T21:36:05.968Z,96888.22
2023-01-27T21:38:33.659Z,96886.31
2023-01-27T21:41:05.420Z,96884.19
2023-01-27T21:43:51.937Z,96875.41
2023-01-27T21:46:19.787Z,96880.34
2023-01-27T21:48:47.761Z,96876.75
2023-01-27T21:51:15.577Z,96878.53
2023-01-27T21:53:43.235Z,96882.44
2023-01-27T21:56:11.459Z,96888.16
2023-01-27T21:58:39.183Z,96892.00
2023-01-27T22:01:07.791Z,96891.47
2023-01-27T22:03:36.320Z,96892.19
2023-01-27T22:06:06.012Z,96883.75
2023-01-27T22:08:34.088Z,96891.81
2023-01-27T22:11:11.692Z,96887.41
2023-01-27T22:13:40.207Z,96896.38
2023-01-27T22:16:08.170Z,96896.38
2023-01-27T22:18:35.916Z,96895.00
2023-01-27T22:21:03.764Z,96893.06
2023-01-27T22:23:31.441Z,96893.41
2023-01-27T22:25:59.225Z,96889.84
2023-01-27T22:28:27.472Z,96892.97
2023-01-27T22:30:55.368Z,96884.13
2023-01-27T22:33:23.099Z,96892.88
2023-01-27T22:35:58.971Z,96884.81
2023-01-27T22:38:26.714Z,96884.53
2023-01-27T22:40:58.007Z,96886.69
2023-01-27T22:43:25.720Z,96893.31
2023-01-27T22:45:53.481Z,96892.63
2023-01-27T22:48:21.234Z,96894.78
2023-01-27T22:50:48.961Z,96891.13
2023-01-27T22:53:16.647Z,96890.53
2023-01-27T22:55:44.347Z,96887.72
2023-01-27T22:58:12.026Z,96884.91
2023-01-27T23:00:39.877Z,96893.06
2023-01-27T23:03:07.575Z,96883.69
2023-01-27T23:05:35.294Z,96877.34
2023-01-27T23:08:02.996Z,96882.97
2023-01-27T23:10:30.734Z,96883.25
2023-01-27T23:12:58.466Z,96883.34
2023-01-27T23:15:26.222Z,96881.66
2023-01-27T23:17:53.995Z,96885.69
2023-01-27T23:20:21.801Z,96882.78
2023-01-27T23:22:49.541Z,96877.34
2023-01-27T23:25:17.563Z,96882.09
2023-01-27T23:27:45.432Z,96888.63
2023-01-27T23:30:13.634Z,96889.88
2023-01-27T23:32:41.402Z,96885.16
2023-01-27T23:35:09.340Z,96888.59
2023-01-27T23:37:37.157Z,96880.34
2023-01-27T23:40:05.372Z,96880.84
2023-01-27T23:42:33.126Z,96888.22
2023-01-27T23:45:00.854Z,96884.19
2023-01-27T23:47:28.585Z,96895.81
2023-01-27T23:49:56.334Z,96891.97
2023-01-27T23:52:24.061Z,96878.34
2023-01-27T23:54:51.729Z,96889.53
2023-01-27T23:57:19.597Z,96890.66
2023-01-27T23:59:48.629Z,96889.03
